Time;durP1;ratioP1;P1;durP2;ratioP2;P2;SDS_P1;SDS_P2;PMS_P1;PMS_P2;Temp;Humidity;BMP_temperature;BMP_pressure;BME280_temperature;BME280_humidity;BME280_pressure;Samples;Min_cycle;Max_cycle;Signal;HPM_P1;HPM_P2
2023/04/28 00:00:54;;;;;;;20.50;18.10;;;;;;;2.91;76.54;98329.79;106743;1276;22630;-75
2023/04/28 00:03:22;;;;;;;20.70;18.20;;;;;;;2.92;76.63;98330.56;106720;1276;24362;-75
2023/04/28 00:05:52;;;;;;;86.10;73.50;;;;;;;2.98;76.79;98327.63;106778;1276;22560;-75
2023/04/28 00:08:22;;;;;;;47.80;43.40;;;;;;;3.06;76.82;98325.69;106729;1276;24223;-75
2023/04/28 00:10:50;;;;;;;26.80;24.20;;;;;;;3.07;76.82;98319.27;106780;1276;25326;-75
2023/04/28 00:13:18;;;;;;;36.20;32.70;;;;;;;3.00;77.25;98321.80;106725;1276;24253;-75
2023/04/28 00:15:46;;;;;;;30.10;27.30;;;;;;;2.90;77.07;98317.10;106749;1276;22604;-75
2023/04/28 00:18:14;;;;;;;20.90;18.80;;;;;;;2.84;77.18;98315.92;106468;1276;24233;-75
2023/04/28 00:20:42;;;;;;;20.30;18.30;;;;;;;2.80;77.31;98311.31;106722;1276;24289;-75
2023/04/28 00:23:10;;;;;;;16.20;14.40;;;;;;;2.73;77.69;98312.64;106752;1276;25386;-75
2023/04/28 00:25:38;;;;;;;15.00;13.40;;;;;;;2.68;78.12;98315.04;106690;1276;22609;-75
2023/04/28 00:28:06;;;;;;;16.60;14.30;;;;;;;2.63;78.38;98322.20;106746;1276;22629;-75
2023/04/28 00:30:34;;;;;;;17.30;15.60;;;;;;;2.62;78.01;98321.52;106737;1276;24472;-76
2023/04/28 00:33:03;;;;;;;17.90;16.20;;;;;;;2.67;77.90;98321.04;106708;1276;24205;-75
2023/04/28 00:35:31;;;;;;;19.40;17.00;;;;;;;2.71;77.91;98323.03;106756;1276;24308;-75
2023/04/28 00:37:59;;;;;;;20.00;17.80;;;;;;;2.74;77.83;98323.02;106517;1253;22507;-75
2023/04/28 00:40:34;;;;;;;20.80;18.70;;;;;;;2.74;77.74;98320.04;106704;1276;22647;-75
2023/04/28 00:43:03;;;;;;;19.10;17.10;;;;;;;2.75;77.77;98312.93;106745;1276;25360;-75
2023/04/28 00:45:31;;;;;;;56.30;51.40;;;;;;;2.80;77.72;98314.88;106751;1276;22633;-75
2023/04/28 00:47:59;;;;;;;19.10;17.10;;;;;;;2.85;77.52;98316.25;106784;1276;24286;-75
2023/04/28 00:50:28;;;;;;;14.90;12.80;;;;;;;2.85;77.73;98317.16;106862;1276;22604;-75
2023/04/28 00:52:55;;;;;;;15.30;12.90;;;;;;;2.77;78.85;98316.10;106728;1276;25348;-76
2023/04/28 00:55:26;;;;;;;15.90;14.30;;;;;;;2.67;78.52;98322.68;106752;1276;22539;-76
2023/04/28 00:57:55;;;;;;;42.90;38.80;;;;;;;2.60;78.19;98316.48;106820;1252;24308;-76
2023/04/28 01:00:23;;;;;;;23.20;20.90;;;;;;;2.61;78.24;98320.33;106724;1276;25420;-76
2023/04/28 01:02:53;;;;;;;20.70;18.40;;;;;;;2.65;78.42;98319.61;106767;1276;25236;-75
2023/04/28 01:05:25;;;;;;;27.40;24.70;;;;;;;2.68;78.05;98318.33;106765;1276;23936;-76
2023/04/28 01:07:53;;;;;;;23.70;21.00;;;;;;;2.64;78.06;98318.36;106831;1276;22518;-76
2023/04/28 01:10:21;;;;;;;25.60;23.00;;;;;;;2.61;78.39;98316.66;106629;1276;25181;-77
2023/04/28 01:12:49;;;;;;;72.80;66.10;;;;;;;2.63;78.45;98316.17;106645;1276;22573;-76
2023/04/28 01:15:19;;;;;;;48.50;43.70;;;;;;;2.68;78.47;98317.87;106463;1276;22573;-74
2023/04/28 01:17:48;;;;;;;40.50;36.40;;;;;;;2.68;79.01;98324.98;106546;1276;22541;-76
2023/04/28 01:20:16;;;;;;;33.40;30.10;;;;;;;2.63;79.37;98322.40;106732;1276;22522;-77
2023/04/28 01:22:45;;;;;;;30.10;26.30;;;;;;;2.57;79.32;98321.86;106545;1276;22992;-75
2023/04/28 01:25:13;;;;;;;38.10;34.40;;;;;;;2.51;79.10;98320.73;106793;1276;24223;-77
2023/04/28 01:27:41;;;;;;;43.70;39.40;;;;;;;2.49;78.88;98322.88;106769;1276;22529;-77
2023/04/28 01:30:10;;;;;;;34.90;31.70;;;;;;;2.54;78.74;98323.12;106603;1276;24276;-76
2023/04/28 01:32:39;;;;;;;31.90;28.70;;;;;;;2.56;78.61;98322.95;106767;1266;22626;-76
2023/04/28 01:35:07;;;;;;;32.70;29.70;;;;;;;2.55;78.87;98325.65;106571;1272;25217;-77
2023/04/28 01:37:35;;;;;;;27.40;24.80;;;;;;;2.56;78.61;98323.52;106557;1276;22531;-77
2023/04/28 01:40:04;;;;;;;23.40;21.10;;;;;;;2.52;78.65;98329.42;106785;1276;22633;-77
2023/04/28 01:42:32;;;;;;;22.30;18.90;;;;;;;2.47;78.72;98326.60;106725;1276;22573;-76
2023/04/28 01:45:02;;;;;;;23.40;20.90;;;;;;;2.43;79.06;98328.50;106711;1276;22531;-76
2023/04/28 01:47:31;;;;;;;20.50;18.50;;;;;;;2.43;78.76;98327.21;106727;1276;22770;-77
2023/04/28 01:49:59;;;;;;;17.60;15.70;;;;;;;2.43;78.82;98324.55;106715;1276;22658;-77
2023/04/28 01:52:27;;;;;;;51.70;47.30;;;;;;;2.43;78.48;98321.41;106739;1276;24267;-77
2023/04/28 01:54:55;;;;;;;39.20;35.70;;;;;;;2.47;78.67;98317.36;106765;1276;22544;-77
2023/04/28 01:57:24;;;;;;;22.40;20.10;;;;;;;2.54;78.52;98316.15;106759;1276;24222;-77
2023/04/28 01:59:53;;;;;;;28.80;26.10;;;;;;;2.55;79.12;98316.23;106871;1254;25652;-77
2023/04/28 02:02:21;;;;;;;20.40;18.40;;;;;;;2.42;79.58;98315.55;106764;1276;24368;-75
2023/04/28 02:04:50;;;;;;;19.40;17.50;;;;;;;2.31;79.73;98319.94;106744;1276;22618;-75
2023/04/28 02:07:19;;;;;;;20.30;18.20;;;;;;;2.20;79.53;98320.58;106814;1276;22521;-75
2023/04/28 02:09:47;;;;;;;25.20;22.70;;;;;;;2.19;79.51;98322.20;106773;1276;25431;-75
2023/04/28 02:12:16;;;;;;;19.70;16.30;;;;;;;2.20;79.06;98318.83;106717;1276;25412;-75
2023/04/28 02:14:44;;;;;;;22.30;18.50;;;;;;;2.19;79.12;98320.48;106440;1276;24049;-75
2023/04/28 02:17:13;;;;;;;18.90;17.00;;;;;;;2.13;79.87;98327.23;106788;1276;22629;-75
2023/04/28 02:19:42;;;;;;;17.20;15.20;;;;;;;2.06;79.98;98329.53;106748;1276;22785;-75
2023/04/28 02:22:12;;;;;;;23.00;20.70;;;;;;;2.01;79.61;98326.52;106558;1276;22647;-75
2023/04/28 02:24:40;;;;;;;23.20;21.00;;;;;;;2.01;79.75;98326.55;106575;1276;23071;-75
2023/04/28 02:27:08;;;;;;;22.40;20.40;;;;;;;2.02;79.58;98323.19;106712;1276;25322;-75
2023/04/28 02:29:36;;;;;;;26.70;22.00;;;;;;;2.03;79.56;98322.67;106779;1276;22752;-75
2023/04/28 02:32:04;;;;;;;26.40;23.70;;;;;;;1.98;79.28;98318.14;106768;1276;24221;-75
2023/04/28 02:34:32;;;;;;;24.70;21.60;;;;;;;1.89;79.21;98314.95;106724;1276;23379;-75
2023/04/28 02:37:01;;;;;;;17.50;15.70;;;;;;;1.78;79.40;98315.89;106716;1276;22662;-75
2023/04/28 02:39:30;;;;;;;20.50;15.50;;;;;;;1.68;79.41;98309.71;106760;1276;22663;-76
2023/04/28 02:41:58;;;;;;;21.50;19.30;;;;;;;1.68;79.53;98310.14;106484;1276;25375;-75
2023/04/28 02:44:26;;;;;;;22.10;19.30;;;;;;;1.67;79.51;98312.19;106439;1276;25361;-76
2023/04/28 02:46:54;;;;;;;30.50;16.70;;;;;;;1.59;79.36;98314.55;106766;1266;22543;-77
2023/04/28 02:49:23;;;;;;;20.30;16.90;;;;;;;1.47;79.27;98314.21;106761;1276;24367;-77
2023/04/28 02:51:51;;;;;;;23.90;21.20;;;;;;;1.39;79.40;98315.56;106734;1276;22531;-75
2023/04/28 02:54:28;;;;;;;30.10;27.00;;;;;;;1.37;79.50;98309.56;106734;1276;22769;-75
2023/04/28 02:56:57;;;;;;;26.90;22.50;;;;;;;1.40;79.39;98313.71;106753;1276;22570;-74
2023/04/28 02:59:26;;;;;;;21.10;18.00;;;;;;;1.41;79.31;98310.40;106586;1276;22545;-74
2023/04/28 03:01:54;;;;;;;18.00;16.20;;;;;;;1.27;79.86;98313.26;106545;1276;22540;-74
2023/04/28 03:04:22;;;;;;;19.50;17.10;;;;;;;1.09;80.63;98314.99;106745;1276;24228;-75
2023/04/28 03:06:50;;;;;;;40.00;36.50;;;;;;;0.97;80.42;98313.50;106720;1276;22570;-75
2023/04/28 03:09:18;;;;;;;31.80;29.00;;;;;;;0.89;80.28;98311.52;106710;1276;25409;-75
2023/04/28 03:11:46;;;;;;;31.40;28.30;;;;;;;0.84;80.15;98309.11;106743;1276;23131;-76
2023/04/28 03:14:14;;;;;;;42.00;38.10;;;;;;;0.83;80.16;98307.33;106635;1276;22601;-75
2023/04/28 03:16:43;;;;;;;50.40;45.50;;;;;;;0.83;79.87;98305.95;106755;1276;24218;-76
2023/04/28 03:19:11;;;;;;;49.10;44.60;;;;;;;0.81;80.59;98308.65;106566;1276;22529;-75
2023/04/28 03:21:39;;;;;;;55.80;50.90;;;;;;;0.78;80.75;98314.09;106721;1276;22616;-75
2023/04/28 03:24:07;;;;;;;73.80;66.40;;;;;;;0.76;80.61;98315.67;106725;1276;22662;-76
2023/04/28 03:26:36;;;;;;;69.00;62.90;;;;;;;0.77;80.69;98315.65;106734;1276;24271;-75
2023/04/28 03:29:04;;;;;;;45.20;41.30;;;;;;;0.80;80.73;98314.64;106733;1276;22535;-77
2023/04/28 03:31:32;;;;;;;26.90;22.90;;;;;;;0.74;81.51;98316.80;106619;1276;22535;-77
2023/04/28 03:34:03;;;;;;;27.50;24.60;;;;;;;0.61;81.68;98319.52;106731;1276;25312;-75
2023/04/28 03:36:32;;;;;;;29.80;24.30;;;;;;;0.54;82.19;98316.04;106580;1276;23915;-75
2023/04/28 03:39:06;;;;;;;31.60;27.40;;;;;;;0.51;82.01;98318.77;106760;1276;24445;-75
2023/04/28 03:41:34;;;;;;;30.30;27.00;;;;;;;0.51;81.83;98314.25;106751;1276;22799;-76
2023/04/28 03:44:25;;;;;;;36.50;32.70;;;;;;;0.54;82.44;98313.77;106730;1276;25248;-76
2023/04/28 03:46:53;;;;;;;34.60;31.00;;;;;;;0.52;82.65;98318.48;106592;1253;24193;-76
2023/04/28 03:49:21;;;;;;;34.80;31.40;;;;;;;0.51;82.41;98316.21;106769;1276;24422;-79
2023/04/28 03:51:50;;;;;;;92.70;83.90;;;;;;;0.53;82.14;98316.58;106630;1276;22527;-79
2023/04/28 03:54:18;;;;;;;73.80;67.30;;;;;;;0.58;82.26;98314.08;106430;1273;25608;-78
2023/04/28 03:56:46;;;;;;;40.90;36.70;;;;;;;0.68;82.08;98315.67;106931;1276;22528;-75
2023/04/28 03:59:15;;;;;;;37.70;33.70;;;;;;;0.78;81.92;98318.43;106759;1276;22959;-74
2023/04/28 04:01:43;;;;;;;29.70;24.10;;;;;;;0.88;81.95;98316.05;106502;1276;24395;-77
2023/04/28 04:04:11;;;;;;;32.20;27.00;;;;;;;1.04;82.01;98315.48;106776;1276;22618;-76
2023/04/28 04:06:40;;;;;;;29.20;26.20;;;;;;;1.16;82.05;98309.16;106472;1276;22626;-76
2023/04/28 04:09:09;;;;;;;31.80;28.70;;;;;;;1.28;82.13;98304.95;106488;1276;24346;-77
2023/04/28 04:11:38;;;;;;;43.10;39.20;;;;;;;1.40;82.00;98300.60;106744;1276;22531;-77
2023/04/28 04:14:06;;;;;;;33.90;30.60;;;;;;;1.50;82.09;98296.05;106585;1276;22609;-77
2023/04/28 04:16:35;;;;;;;35.30;31.60;;;;;;;1.60;82.06;98294.98;106699;1276;22722;-76
2023/04/28 04:19:04;;;;;;;34.10;30.80;;;;;;;1.72;82.06;98291.14;106757;1276;24416;-76
2023/04/28 04:21:41;;;;;;;30.70;27.40;;;;;;;1.85;81.94;98297.75;106751;1276;24321;-76
2023/04/28 04:24:09;;;;;;;30.20;26.80;;;;;;;1.98;81.99;98292.46;106667;1276;22749;-77
2023/04/28 04:26:37;;;;;;;27.80;24.90;;;;;;;2.13;81.75;98289.11;106942;1276;22534;-78
2023/04/28 04:29:18;;;;;;;27.00;24.30;;;;;;;2.29;81.92;98289.82;106831;1276;22978;-77
2023/04/28 04:31:48;;;;;;;29.10;25.70;;;;;;;2.41;81.67;98289.94;106768;1276;24215;-77
2023/04/28 04:34:16;;;;;;;32.00;29.00;;;;;;;2.51;81.71;98289.49;106722;1276;22565;-75
2023/04/28 04:36:46;;;;;;;38.60;32.90;;;;;;;2.62;81.65;98287.73;106760;1276;22636;-77
2023/04/28 04:39:14;;;;;;;30.20;27.10;;;;;;;2.73;81.37;98289.48;106846;1276;22573;-77
2023/04/28 04:41:42;;;;;;;27.70;24.70;;;;;;;2.80;81.26;98289.86;106778;1276;23891;-77
2023/04/28 04:44:33;;;;;;;30.90;23.90;;;;;;;2.90;81.40;98293.46;106513;1276;22542;-78
2023/04/28 04:47:01;;;;;;;26.70;24.00;;;;;;;2.97;81.33;98290.60;106766;1276;24380;-76
2023/04/28 04:49:30;;;;;;;29.20;22.50;;;;;;;3.10;81.50;98298.48;106456;1276;22658;-77
2023/04/28 04:51:58;;;;;;;25.60;22.80;;;;;;;3.25;81.41;98302.15;106617;1276;25303;-76
2023/04/28 04:54:26;;;;;;;28.20;22.00;;;;;;;3.42;81.31;98301.58;106778;1276;23241;-77
2023/04/28 04:56:55;;;;;;;28.40;22.80;;;;;;;3.60;81.21;98300.79;106725;1276;24245;-76
2023/04/28 04:59:36;;;;;;;26.40;23.10;;;;;;;3.79;80.85;98301.75;106439;1276;25466;-76
2023/04/28 05:02:09;;;;;;;31.30;25.10;;;;;;;3.94;81.19;98299.64;106703;1276;23154;-76
2023/04/28 05:04:37;;;;;;;28.40;25.10;;;;;;;4.09;80.91;98301.16;106583;1276;22516;-77
2023/04/28 05:07:06;;;;;;;27.00;24.20;;;;;;;4.23;80.92;98297.18;106741;1276;24046;-77
2023/04/28 05:09:35;;;;;;;24.00;21.50;;;;;;;4.38;80.92;98298.12;106747;1276;24368;-78
2023/04/28 05:12:03;;;;;;;27.20;23.40;;;;;;;4.50;80.35;98301.67;106935;1276;22615;-78
2023/04/28 05:14:31;;;;;;;26.10;23.30;;;;;;;4.61;79.78;98303.08;106682;1276;24212;-78
2023/04/28 05:16:59;;;;;;;29.80;23.80;;;;;;;4.71;79.35;98308.27;106917;1276;24244;-78
2023/04/28 05:19:33;;;;;;;23.80;21.30;;;;;;;4.79;79.20;98309.42;106874;1276;22640;-78
2023/04/28 05:22:02;;;;;;;25.40;22.00;;;;;;;4.89;78.87;98311.34;106624;1276;22575;-78
2023/04/28 05:24:30;;;;;;;26.30;22.50;;;;;;;4.98;78.50;98312.23;106748;1276;22744;-79
2023/04/28 05:26:58;;;;;;;22.70;19.90;;;;;;;5.07;78.24;98311.99;106753;1276;22763;-77
2023/04/28 05:29:26;;;;;;;23.50;19.30;;;;;;;5.14;77.88;98312.55;106739;1276;22835;-75
2023/04/28 05:31:54;;;;;;;25.70;20.70;;;;;;;5.22;78.11;98316.58;106724;1276;25348;-75
2023/04/28 05:34:23;;;;;;;23.70;21.20;;;;;;;5.30;77.41;98316.33;106759;1276;22649;-77
2023/04/28 05:36:51;;;;;;;26.50;21.70;;;;;;;5.39;77.38;98316.94;106747;1276;22799;-75
2023/04/28 05:39:21;;;;;;;25.10;22.40;;;;;;;5.49;77.01;98313.27;106743;1276;23002;-76
2023/04/28 05:41:49;;;;;;;24.10;20.70;;;;;;;5.60;76.78;98317.42;106604;1276;22528;-75
2023/04/28 05:44:17;;;;;;;25.90;21.60;;;;;;;5.72;76.60;98314.67;106500;1276;26695;-76
2023/04/28 05:46:46;;;;;;;22.40;19.10;;;;;;;5.83;76.18;98315.33;106742;1276;22924;-76
2023/04/28 05:49:14;;;;;;;26.10;18.90;;;;;;;5.95;75.62;98313.77;106666;1276;191444;-76
2023/04/28 05:51:43;;;;;;;27.30;19.30;;;;;;;6.06;75.76;98310.32;106526;1276;25458;-78
2023/04/28 05:54:11;;;;;;;27.00;24.20;;;;;;;6.18;75.74;98313.38;107321;1270;24392;-78
2023/04/28 05:56:43;;;;;;;47.00;35.30;;;;;;;6.32;74.99;98310.03;106673;1276;22629;-76
2023/04/28 05:59:11;;;;;;;29.20;26.10;;;;;;;6.42;75.05;98313.93;106565;1276;22543;-82
2023/04/28 06:01:39;;;;;;;26.30;22.70;;;;;;;6.55;74.13;98317.73;107370;1276;22590;-89
2023/04/28 06:04:07;;;;;;;23.50;20.00;;;;;;;6.68;74.11;98320.19;107324;1276;22804;-87
2023/04/28 06:06:36;;;;;;;33.70;23.00;;;;;;;6.80;73.89;98316.52;107121;1260;25481;-81
2023/04/28 06:09:04;;;;;;;35.30;30.30;;;;;;;6.93;73.40;98315.48;107078;1276;25705;-81
2023/04/28 06:11:33;;;;;;;31.00;27.70;;;;;;;7.09;73.56;98315.95;107073;1276;25275;-80
2023/04/28 06:14:01;;;;;;;26.80;24.00;;;;;;;7.23;73.34;98314.21;106964;1271;22526;-83
2023/04/28 06:16:29;;;;;;;25.20;21.80;;;;;;;7.37;71.38;98319.52;106922;1276;23238;-79
2023/04/28 06:18:57;;;;;;;22.30;19.50;;;;;;;7.45;70.90;98315.08;106947;1276;24193;-79
2023/04/28 06:21:27;;;;;;;28.00;25.10;;;;;;;7.56;70.39;98319.64;106945;1276;22796;-81
2023/04/28 06:23:56;;;;;;;26.70;24.00;;;;;;;7.68;70.94;98316.04;107135;1276;24352;-79
2023/04/28 06:26:24;;;;;;;25.50;22.90;;;;;;;7.83;70.86;98315.38;106932;1276;22535;-81
2023/04/28 06:28:52;;;;;;;20.30;18.10;;;;;;;7.92;70.12;98313.33;106988;1274;25268;-81
2023/04/28 06:31:20;;;;;;;18.10;15.50;;;;;;;8.05;69.81;98314.70;107099;1276;22819;-81
2023/04/28 06:33:49;;;;;;;22.30;16.40;;;;;;;8.16;70.17;98316.92;107142;1276;22532;-79
2023/04/28 06:36:17;;;;;;;17.70;15.90;;;;;;;8.30;69.61;98316.83;107116;1276;22521;-80
2023/04/28 06:38:45;;;;;;;17.70;15.30;;;;;;;8.40;68.13;98320.80;107099;1276;24663;-76
2023/04/28 06:41:13;;;;;;;19.30;14.50;;;;;;;8.48;68.78;98318.42;107106;1276;22535;-77
2023/04/28 06:43:47;;;;;;;22.60;16.50;;;;;;;8.59;68.95;98311.48;106972;1276;25223;-74
2023/04/28 06:46:21;;;;;;;19.20;14.80;;;;;;;8.66;67.29;98309.64;106754;1276;25220;-76
2023/04/28 06:48:49;;;;;;;17.60;15.30;;;;;;;8.72;67.57;98301.55;106860;1276;22519;-76
2023/04/28 06:51:17;;;;;;;17.70;15.30;;;;;;;8.81;66.59;98302.27;106548;1276;24095;-77
2023/04/28 06:53:45;;;;;;;16.60;14.40;;;;;;;8.89;66.68;98306.08;106859;1264;22518;-77
2023/04/28 06:56:13;;;;;;;21.60;15.00;;;;;;;9.01;67.54;98310.21;106648;1276;22544;-76
2023/04/28 06:58:41;;;;;;;20.20;15.10;;;;;;;9.15;66.69;98311.89;106826;1276;22544;-75
2023/04/28 07:01:09;;;;;;;20.60;18.10;;;;;;;9.24;65.22;98313.83;106865;1276;22518;-75
2023/04/28 07:03:38;;;;;;;28.20;24.10;;;;;;;9.33;65.69;98310.69;106857;1276;23296;-75
2023/04/28 07:06:06;;;;;;;19.00;15.40;;;;;;;9.45;65.36;98305.29;106855;1276;22540;-75
2023/04/28 07:08:35;;;;;;;15.20;12.30;;;;;;;9.62;64.77;98305.52;106808;1276;22522;-74
2023/04/28 07:11:05;;;;;;;22.00;15.30;;;;;;;9.75;62.18;98302.93;106963;1276;22525;-76
2023/04/28 07:13:33;;;;;;;21.70;15.20;;;;;;;9.85;62.29;98302.14;106905;1276;24654;-75
2023/04/28 07:16:01;;;;;;;15.40;13.80;;;;;;;9.97;62.60;98307.77;106840;1270;25395;-81
2023/04/28 07:18:29;;;;;;;15.30;11.60;;;;;;;10.10;62.42;98303.61;107107;1276;24330;-78
2023/04/28 07:20:57;;;;;;;17.10;10.20;;;;;;;10.20;61.88;98295.81;107130;1276;22613;-79
2023/04/28 07:23:25;;;;;;;13.30;11.20;;;;;;;10.34;62.55;98294.39;107016;1276;22545;-77
2023/04/28 07:25:53;;;;;;;20.20;12.30;;;;;;;10.49;60.85;98293.18;107117;1276;22619;-78
2023/04/28 07:28:21;;;;;;;15.00;12.00;;;;;;;10.61;61.17;98290.60;106795;1276;25495;-77
2023/04/28 07:30:48;;;;;;;22.40;13.10;;;;;;;10.77;61.64;98283.40;107069;1276;22736;-80
2023/04/28 07:33:16;;;;;;;13.60;10.70;;;;;;;10.92;60.39;98288.30;107099;1276;22654;-78
2023/04/28 07:35:44;;;;;;;15.30;9.70;;;;;;;11.06;60.64;98282.93;107102;1276;25338;-78
2023/04/28 07:38:12;;;;;;;10.10;7.80;;;;;;;11.22;59.69;98280.97;106777;1276;22542;-78
2023/04/28 07:40:42;;;;;;;11.80;7.80;;;;;;;11.28;57.54;98272.95;106820;1276;22548;-78
2023/04/28 07:43:10;;;;;;;11.80;7.20;;;;;;;11.34;57.99;98275.96;106877;1276;22547;-80
2023/04/28 07:45:39;;;;;;;9.50;6.80;;;;;;;11.56;57.51;98272.34;106859;1276;22527;-78
2023/04/28 07:48:07;;;;;;;12.00;6.40;;;;;;;11.72;55.94;98271.42;107070;1276;25357;-78
2023/04/28 07:50:35;;;;;;;10.10;6.70;;;;;;;11.75;56.90;98267.40;107085;1276;25379;-78
2023/04/28 07:53:03;;;;;;;10.60;7.20;;;;;;;11.79;54.96;98263.52;107079;1276;25384;-78
2023/04/28 07:55:31;;;;;;;10.60;6.80;;;;;;;11.83;52.96;98263.55;106915;1276;22602;-79
2023/04/28 07:57:59;;;;;;;14.70;6.60;;;;;;;11.96;53.47;98263.50;107051;1276;22527;-80
2023/04/28 08:00:27;;;;;;;8.40;6.00;;;;;;;12.15;54.59;98263.77;107079;1276;22785;-79
2023/04/28 08:02:56;;;;;;;9.50;6.50;;;;;;;12.41;53.30;98266.20;107128;1276;22540;-81
2023/04/28 08:05:25;;;;;;;10.20;6.10;;;;;;;12.46;53.47;98268.32;107014;1276;23339;-80
2023/04/28 08:07:53;;;;;;;11.20;6.00;;;;;;;12.54;52.97;98267.98;106847;1276;22528;-81
2023/04/28 08:10:21;;;;;;;11.90;7.00;;;;;;;12.56;51.28;98269.48;106959;1276;24369;-79
2023/04/28 08:12:49;;;;;;;10.20;7.10;;;;;;;12.58;50.88;98265.11;106851;1276;25423;-76
2023/04/28 08:15:18;;;;;;;9.30;7.30;;;;;;;12.73;51.03;98263.48;106946;1276;22523;-78
2023/04/28 08:17:46;;;;;;;13.50;7.50;;;;;;;12.89;51.54;98263.39;107203;1276;22635;-78
2023/04/28 08:20:14;;;;;;;11.40;6.90;;;;;;;12.92;49.09;98262.85;107268;1254;25271;-81
2023/04/28 08:22:42;;;;;;;11.30;6.90;;;;;;;12.77;48.96;98265.92;107192;1276;25350;-79
2023/04/28 08:25:10;;;;;;;13.90;6.70;;;;;;;12.65;46.65;98260.40;107474;1276;25576;-81
2023/04/28 08:27:38;;;;;;;11.20;6.50;;;;;;;12.59;47.32;98253.66;107109;1276;25364;-79
2023/04/28 08:30:08;;;;;;;10.40;7.00;;;;;;;12.58;47.74;98249.63;107202;1276;22532;-80
2023/04/28 08:32:41;;;;;;;9.20;6.10;;;;;;;12.73;47.76;98249.02;107193;1276;22543;-79
2023/04/28 08:35:09;;;;;;;10.50;7.10;;;;;;;12.90;48.86;98245.09;107103;1276;25338;-79
2023/04/28 08:37:37;;;;;;;10.30;6.40;;;;;;;12.97;47.12;98246.77;107187;1276;25431;-78
2023/04/28 08:40:08;;;;;;;9.60;6.60;;;;;;;12.99;45.95;98238.92;107185;1276;22580;-79
2023/04/28 08:42:37;;;;;;;10.20;7.00;;;;;;;13.12;46.26;98244.43;107187;1276;22642;-80
2023/04/28 08:45:05;;;;;;;10.20;7.20;;;;;;;13.26;45.05;98241.79;107122;1276;25406;-77
2023/04/28 08:47:39;;;;;;;11.20;7.30;;;;;;;13.37;45.68;98238.13;107202;1276;25121;-79
2023/04/28 08:50:07;;;;;;;11.50;6.00;;;;;;;13.51;45.15;98238.90;107181;1276;22524;-79
2023/04/28 08:52:35;;;;;;;9.90;6.70;;;;;;;13.62;44.99;98240.56;107122;1276;24255;-79
2023/04/28 08:55:09;;;;;;;12.10;6.30;;;;;;;13.76;44.79;98235.73;107107;1272;22530;-77
2023/04/28 08:57:38;;;;;;;9.70;5.50;;;;;;;13.90;43.01;98240.70;106816;1276;22636;-79
2023/04/28 09:00:09;;;;;;;12.10;5.90;;;;;;;13.88;43.81;98237.20;106893;1276;25499;-79
2023/04/28 09:02:40;;;;;;;11.40;5.60;;;;;;;13.94;43.99;98231.67;107129;1276;23246;-79
2023/04/28 09:05:10;;;;;;;15.80;6.10;;;;;;;13.92;42.98;98226.19;107146;1276;22574;-79
2023/04/28 09:07:39;;;;;;;13.90;6.30;;;;;;;14.01;43.85;98226.00;106890;1276;22558;-79
2023/04/28 09:10:20;;;;;;;11.10;6.40;;;;;;;14.20;44.39;98223.16;107067;1276;23281;-77
2023/04/28 09:12:52;;;;;;;10.40;6.10;;;;;;;14.41;42.32;98223.69;106663;1276;22543;-78
2023/04/28 09:15:39;;;;;;;8.60;5.10;;;;;;;14.43;41.09;98222.81;107085;1276;22568;-77
2023/04/28 09:18:13;;;;;;;9.70;6.30;;;;;;;14.43;41.34;98222.07;107155;1276;25574;-79
2023/04/28 09:20:43;;;;;;;8.90;6.00;;;;;;;14.33;39.59;98220.34;107101;1276;22619;-80
2023/04/28 09:23:21;;;;;;;8.40;5.50;;;;;;;14.25;39.55;98212.71;106878;1276;23931;-80
2023/04/28 09:26:07;;;;;;;13.00;10.70;;;;;;;14.20;39.60;98209.77;107031;1276;25462;-79
2023/04/28 09:28:35;;;;;;;10.00;6.10;;;;;;;14.29;40.69;98207.66;106861;1276;25370;-79
2023/04/28 09:31:03;;;;;;;9.10;5.70;;;;;;;14.42;40.14;98207.46;107062;1252;22527;-79
2023/04/28 09:33:31;;;;;;;9.30;5.40;;;;;;;14.53;39.98;98203.90;106801;1276;22804;-80
2023/04/28 09:36:00;;;;;;;10.10;5.90;;;;;;;14.61;39.36;98198.14;107104;1269;22512;-79
2023/04/28 09:38:28;;;;;;;11.80;5.60;;;;;;;14.59;38.24;98198.02;107135;1276;22633;-78
2023/04/28 09:40:58;;;;;;;12.10;6.20;;;;;;;14.55;37.21;98199.88;107095;1269;22541;-80
2023/04/28 09:43:27;;;;;;;8.60;5.60;;;;;;;14.36;37.39;98196.83;107023;1277;22549;-80
2023/04/28 09:45:58;;;;;;;12.70;5.90;;;;;;;14.27;37.31;98196.07;106846;1277;22700;-78
2023/04/28 09:48:39;;;;;;;9.60;5.70;;;;;;;14.17;37.92;98196.55;106820;1277;25623;-79
2023/04/28 09:51:07;;;;;;;18.50;6.50;;;;;;;14.15;38.50;98190.17;107063;1276;22543;-79
2023/04/28 09:53:39;;;;;;;8.60;5.70;;;;;;;14.27;38.47;98190.20;107021;1277;22639;-79
2023/04/28 09:56:07;;;;;;;9.70;6.00;;;;;;;14.38;38.88;98182.67;106978;1277;22546;-80
2023/04/28 09:58:39;;;;;;;10.30;5.70;;;;;;;14.52;40.00;98174.64;106926;1277;24377;-79
2023/04/28 10:01:10;;;;;;;11.10;6.40;;;;;;;14.66;38.77;98175.21;106996;1277;22785;-79
2023/04/28 10:03:41;;;;;;;9.80;6.50;;;;;;;14.69;38.26;98170.00;106990;1277;22636;-78
2023/04/28 10:06:10;;;;;;;12.30;6.10;;;;;;;14.77;37.37;98170.41;106899;1277;24362;-79
2023/04/28 10:08:39;;;;;;;9.80;5.70;;;;;;;14.74;35.90;98170.68;106914;1277;24056;-78
2023/04/28 10:11:08;;;;;;;11.10;6.50;;;;;;;14.59;35.55;98161.11;106941;1276;22567;-78
2023/04/28 10:13:37;;;;;;;8.00;5.20;;;;;;;14.55;37.07;98160.46;106923;1277;22655;-78
2023/04/28 10:16:06;;;;;;;8.70;5.40;;;;;;;14.70;37.57;98155.27;106875;1277;22531;-79
2023/04/28 10:18:36;;;;;;;9.70;5.70;;;;;;;14.84;36.05;98152.55;106862;1277;22818;-78
2023/04/28 10:21:06;;;;;;;9.80;6.10;;;;;;;14.76;34.29;98142.97;107083;1273;24240;-80
2023/04/28 10:23:46;;;;;;;8.00;6.10;;;;;;;14.62;34.64;98139.21;107151;1277;24225;-78
2023/04/28 10:26:18;;;;;;;8.80;6.50;;;;;;;14.64;35.79;98137.33;107050;1269;22646;-79
2023/04/28 10:28:48;;;;;;;14.70;6.10;;;;;;;14.91;35.92;98136.20;106925;1277;22539;-78
2023/04/28 10:31:22;;;;;;;10.00;6.20;;;;;;;15.25;35.85;98138.19;107025;1277;25379;-79
2023/04/28 10:33:50;;;;;;;10.80;6.00;;;;;;;15.36;35.92;98134.83;106662;1277;23892;-79
2023/04/28 10:36:51;;;;;;;9.20;6.70;;;;;;;15.50;36.09;98135.17;106933;1276;25315;-81
2023/04/28 10:39:20;;;;;;;9.70;6.80;;;;;;;15.36;34.96;98129.94;107052;1277;22480;-79
2023/04/28 10:41:48;;;;;;;15.10;5.60;;;;;;;15.23;36.00;98130.41;106955;1277;24092;-80
2023/04/28 10:44:32;;;;;;;9.90;5.80;;;;;;;15.31;35.30;98127.56;106855;1277;22554;-78
2023/04/28 10:47:05;;;;;;;12.20;6.60;;;;;;;15.34;35.53;98126.08;106687;1277;24432;-78
2023/04/28 10:49:56;;;;;;;7.80;5.70;;;;;;;15.25;35.71;98122.76;106907;1277;22550;-79
2023/04/28 10:52:47;;;;;;;7.30;5.20;;;;;;;15.15;36.37;98116.65;106956;1267;24225;-78
2023/04/28 10:55:38;;;;;;;7.40;5.30;;;;;;;15.12;35.94;98113.52;107036;1276;25460;-81
2023/04/28 10:58:19;;;;;;;8.70;5.10;;;;;;;15.08;35.71;98113.10;106979;1277;24268;-78
2023/04/28 11:00:47;;;;;;;9.40;5.20;;;;;;;15.32;36.51;98103.52;106730;1277;22539;-78
2023/04/28 11:03:52;;;;;;;10.30;6.70;;;;;;;15.47;36.54;98101.25;106936;1277;25312;-77
2023/04/28 11:06:27;;;;;;;8.70;5.70;;;;;;;15.64;36.38;98099.45;106688;1276;25318;-78
2023/04/28 11:08:59;;;;;;;9.30;6.80;;;;;;;15.94;36.70;98087.15;106992;1277;25739;-77
2023/04/28 11:11:33;;;;;;;11.10;5.80;;;;;;;16.25;35.12;98091.63;107153;1276;22534;-78
2023/04/28 11:14:17;;;;;;;9.60;6.30;;;;;;;16.20;33.02;98085.95;106987;1277;22542;-78
2023/04/28 11:17:04;;;;;;;9.00;5.70;;;;;;;16.14;33.56;98078.52;106854;1277;22538;-77
2023/04/28 11:19:34;;;;;;;8.30;5.30;;;;;;;16.16;33.52;98076.63;106920;1277;22720;-78
2023/04/28 11:22:14;;;;;;;14.10;6.90;;;;;;;16.28;33.52;98078.02;106964;1276;25380;-78
2023/04/28 11:24:56;;;;;;;8.60;5.40;;;;;;;16.56;35.25;98082.08;106728;1267;22681;-76
2023/04/28 11:27:25;;;;;;;7.80;4.70;;;;;;;16.91;33.63;98069.81;106801;1277;22581;-77
2023/04/28 11:29:54;;;;;;;9.70;4.90;;;;;;;16.76;31.47;98061.97;106923;1277;22537;-77
2023/04/28 11:32:31;;;;;;;8.70;5.60;;;;;;;16.70;32.75;98065.18;106721;1277;24246;-77